createdAt,value
2022-12-24T00:00:02.052Z,10.18
2022-12-24T00:05:02.157Z,10.03
2022-12-24T00:10:02.234Z,10.03
2022-12-24T00:15:02.065Z,9.66
2022-12-24T00:20:02.273Z,9.59
2022-12-24T00:25:02.185Z,9.54
2022-12-24T00:30:01.910Z,9.47
2022-12-24T00:35:01.967Z,9.55
2022-12-24T00:40:01.965Z,9.5
2022-12-24T00:45:01.757Z,9.5
2022-12-24T00:50:01.821Z,9.53
2022-12-24T00:55:01.720Z,9.57
2022-12-24T01:00:01.541Z,9.59
2022-12-24T01:05:02.317Z,9.6
2022-12-24T01:10:01.380Z,9.59
2022-12-24T01:15:01.881Z,9.66
2022-12-24T01:20:02.185Z,9.67
2022-12-24T01:25:02.053Z,9.7
2022-12-24T01:30:02.197Z,9.81
2022-12-24T01:35:01.365Z,9.89
2022-12-24T01:40:02.036Z,9.93
2022-12-24T01:45:01.919Z,9.91
2022-12-24T01:50:02.044Z,9.92
2022-12-24T01:55:02.095Z,9.91
2022-12-24T02:00:01.343Z,9.89
2022-12-24T02:05:01.915Z,9.74
2022-12-24T02:10:01.515Z,9.67
2022-12-24T02:15:01.745Z,9.67
2022-12-24T02:20:02.158Z,9.62
2022-12-24T02:25:01.399Z,9.56
2022-12-24T02:30:02.082Z,9.63
2022-12-24T02:35:01.548Z,9.47
2022-12-24T02:40:01.744Z,9.3
2022-12-24T02:45:01.754Z,9.17
2022-12-24T02:50:01.404Z,9.16
2022-12-24T02:55:01.522Z,9.26
2022-12-24T03:00:02.360Z,9.26
2022-12-24T03:05:01.382Z,9.39
2022-12-24T03:10:01.886Z,9.45
2022-12-24T03:15:01.909Z,9.49
2022-12-24T03:20:01.988Z,9.52
2022-12-24T03:25:01.884Z,9.54
2022-12-24T03:30:02.189Z,9.47
2022-12-24T03:35:01.767Z,9.56
2022-12-24T03:40:01.885Z,9.52
2022-12-24T03:45:01.852Z,9.5
2022-12-24T03:50:02.180Z,9.46
2022-12-24T03:55:02.260Z,9.4
2022-12-24T04:00:01.319Z,9.33
2022-12-24T04:05:01.477Z,9.26
2022-12-24T04:10:01.729Z,9.16
2022-12-24T04:15:01.914Z,9.14
2022-12-24T04:20:01.860Z,9.18
2022-12-24T04:25:01.406Z,9.1
2022-12-24T04:30:01.842Z,9.05
2022-12-24T04:35:01.474Z,9.14
2022-12-24T04:40:01.852Z,9.09
2022-12-24T04:45:01.876Z,8.94
2022-12-24T04:50:01.951Z,8.79
2022-12-24T04:55:01.961Z,8.62
2022-12-24T05:00:02.241Z,8.47
2022-12-24T05:05:02.199Z,8.39
2022-12-24T05:10:01.436Z,8.34
2022-12-24T05:15:01.653Z,8.3
2022-12-24T05:20:01.628Z,8.35
2022-12-24T05:25:01.609Z,8.45
2022-12-24T05:30:01.740Z,8.6
2022-12-24T05:35:01.604Z,8.65
2022-12-24T05:40:01.791Z,8.65
2022-12-24T05:45:02.072Z,8.72
2022-12-24T05:50:01.788Z,8.76
2022-12-24T05:55:01.771Z,8.73
2022-12-24T06:00:01.871Z,8.77
2022-12-24T06:05:01.415Z,8.73
2022-12-24T06:10:01.558Z,8.73
2022-12-24T06:15:01.702Z,8.71
2022-12-24T06:20:01.720Z,8.7
2022-12-24T06:25:01.888Z,8.64
2022-12-24T06:30:01.811Z,8.64
2022-12-24T06:35:02.204Z,8.65
2022-12-24T06:40:02.266Z,8.66
2022-12-24T06:45:07.805Z,8.66
2022-12-24T06:50:01.279Z,8.71
2022-12-24T06:55:01.477Z,8.76
2022-12-24T07:00:01.687Z,8.77
2022-12-24T07:05:01.913Z,8.82
2022-12-24T07:10:02.076Z,8.86
2022-12-24T07:15:02.187Z,8.82
2022-12-24T07:20:02.119Z,8.66
2022-12-24T07:25:01.958Z,8.61
2022-12-24T07:30:01.806Z,8.57
2022-12-24T07:35:01.957Z,8.47
2022-12-24T07:40:02.110Z,8.32
2022-12-24T07:45:02.291Z,8.34
2022-12-24T07:50:01.358Z,8.36
2022-12-24T07:55:01.562Z,8.31
2022-12-24T08:00:01.576Z,8.32
2022-12-24T08:05:01.868Z,8.28
2022-12-24T08:10:02.096Z,8.35
2022-12-24T08:15:01.354Z,8.35
2022-12-24T08:20:01.690Z,8.38
2022-12-24T08:25:01.805Z,8.43
2022-12-24T08:30:01.662Z,8.47
2022-12-24T08:35:02.268Z,8.55
2022-12-24T08:40:01.441Z,8.64
2022-12-24T08:45:02.164Z,8.68
2022-12-24T08:50:01.311Z,8.81
2022-12-24T08:55:01.399Z,8.94
2022-12-24T09:00:01.680Z,9.17
2022-12-24T09:05:02.089Z,9.34
2022-12-24T09:10:02.194Z,9.55
2022-12-24T09:15:04.210Z,9.61
2022-12-24T09:20:02.160Z,9.81
2022-12-24T09:25:02.307Z,9.97
2022-12-24T09:30:02.222Z,9.97
2022-12-24T09:35:02.055Z,9.99
2022-12-24T09:40:01.403Z,9.97
2022-12-24T09:45:01.753Z,10.35
2022-12-24T09:50:01.903Z,10.59
2022-12-24T09:55:01.866Z,10.59
2022-12-24T10:00:01.973Z,10.69
2022-12-24T10:05:01.979Z,10.43
2022-12-24T10:10:02.208Z,10.42
2022-12-24T10:15:02.275Z,10.38
2022-12-24T10:20:02.183Z,10.35
2022-12-24T10:25:02.014Z,10.41
2022-12-24T10:30:02.149Z,10.42
2022-12-24T10:35:02.268Z,10.44
2022-12-24T10:40:01.730Z,10.49
2022-12-24T10:45:01.751Z,10.46
2022-12-24T10:50:01.649Z,10.48
2022-12-24T10:55:01.583Z,10.48
2022-12-24T11:00:01.894Z,10.49
2022-12-24T11:05:02.171Z,10.49
2022-12-24T11:10:01.360Z,10.5
2022-12-24T11:15:01.716Z,10.54
2022-12-24T11:20:02.040Z,10.53
2022-12-24T11:25:02.032Z,10.59
2022-12-24T11:30:06.543Z,10.74
2022-12-24T11:35:02.139Z,10.74
2022-12-24T11:40:02.242Z,10.68
2022-12-24T11:45:01.553Z,10.71
2022-12-24T11:50:17.626Z,10.68
2022-12-24T11:55:02.128Z,10.68
2022-12-24T12:00:01.745Z,10.66
2022-12-24T12:05:01.964Z,10.66
2022-12-24T12:10:01.424Z,10.58
2022-12-24T12:15:01.453Z,10.63
2022-12-24T12:20:01.916Z,10.72
2022-12-24T12:25:02.233Z,10.85
2022-12-24T12:30:01.370Z,10.89
2022-12-24T12:35:01.559Z,10.95
2022-12-24T12:40:02.107Z,10.94
2022-12-24T12:45:02.049Z,10.9
2022-12-24T12:50:01.456Z,11.03
2022-12-24T12:55:01.737Z,11.19
2022-12-24T13:00:01.874Z,11.24
2022-12-24T13:05:02.150Z,11.25
2022-12-24T13:10:01.385Z,11.28
2022-12-24T13:15:01.439Z,11.25
2022-12-24T13:20:01.650Z,11.02
2022-12-24T13:25:01.345Z,10.86
2022-12-24T13:30:09.133Z,10.68
2022-12-24T13:35:01.390Z,10.58
2022-12-24T13:40:01.713Z,10.53
2022-12-24T13:45:01.842Z,10.46
2022-12-24T13:50:01.942Z,10.49
2022-12-24T13:55:01.944Z,10.57
2022-12-24T14:00:01.951Z,10.55
2022-12-24T14:05:02.227Z,10.53
2022-12-24T14:10:01.478Z,10.39
2022-12-24T14:15:01.872Z,10.29
2022-12-24T14:20:01.762Z,10.23
2022-12-24T14:25:01.753Z,10.22
2022-12-24T14:30:02.043Z,10.15
2022-12-24T14:35:01.558Z,9.91
2022-12-24T14:40:01.566Z,9.85
2022-12-24T14:45:01.850Z,9.71
2022-12-24T14:50:01.947Z,9.6
2022-12-24T14:55:02.112Z,9.53
2022-12-24T15:00:01.959Z,9.42
2022-12-24T15:05:02.149Z,9.26
2022-12-24T15:10:01.590Z,9.11
2022-12-24T15:15:01.690Z,9.08
2022-12-24T15:20:02.124Z,9.18
2022-12-24T15:25:02.269Z,9.1
2022-12-24T15:30:01.530Z,9.37
2022-12-24T15:35:01.955Z,9.21
2022-12-24T15:40:02.060Z,9.4
2022-12-24T15:45:01.370Z,9.24
2022-12-24T15:50:01.453Z,9.19
2022-12-24T15:55:01.696Z,9.24
2022-12-24T16:00:01.726Z,9.09
2022-12-24T16:05:01.948Z,9.14
2022-12-24T16:10:02.078Z,8.87
2022-12-24T16:15:01.507Z,8.74
2022-12-24T16:20:02.243Z,8.64
2022-12-24T16:25:02.127Z,8.73
2022-12-24T16:30:02.083Z,8.86
2022-12-24T16:35:01.405Z,8.83
2022-12-24T16:40:01.470Z,8.81
2022-12-24T16:45:01.969Z,8.82
2022-12-24T16:50:01.859Z,8.81
2022-12-24T16:55:01.788Z,8.77
2022-12-24T17:00:02.245Z,8.78
2022-12-24T17:05:01.349Z,8.58
2022-12-24T17:10:01.972Z,8.51
2022-12-24T17:15:02.084Z,8.43
2022-12-24T17:20:01.529Z,8.52
2022-12-24T17:25:01.860Z,8.45
2022-12-24T17:30:01.997Z,8.45
2022-12-24T17:40:01.947Z,8.45
2022-12-24T17:45:02.035Z,8.68
2022-12-24T17:50:01.894Z,8.56
2022-12-24T17:55:01.926Z,8.53
2022-12-24T18:00:02.071Z,8.67
2022-12-24T18:05:01.994Z,8.43
2022-12-24T18:10:02.083Z,8.22
2022-12-24T18:15:01.940Z,8.35
2022-12-24T18:20:02.116Z,8.49
2022-12-24T18:25:01.318Z,8.43
2022-12-24T18:30:01.695Z,8.63
2022-12-24T18:35:01.785Z,8.6
2022-12-24T18:40:01.774Z,8.76
2022-12-24T18:45:01.571Z,8.72
2022-12-24T18:50:01.755Z,8.65
2022-12-24T18:55:02.144Z,8.65
2022-12-24T19:00:02.204Z,8.56
2022-12-24T19:05:01.447Z,8.76
2022-12-24T19:10:01.905Z,8.64
2022-12-24T19:15:01.946Z,8.55
2022-12-24T19:20:02.234Z,8.62
2022-12-24T19:25:02.192Z,8.51
2022-12-24T19:30:02.089Z,8.72
2022-12-24T19:35:01.318Z,8.66
2022-12-24T19:40:01.509Z,8.65
2022-12-24T19:45:01.687Z,8.85
2022-12-24T19:50:01.423Z,8.8
2022-12-24T19:55:01.689Z,8.74
2022-12-24T20:00:02.121Z,8.82
2022-12-24T20:05:01.338Z,8.8
2022-12-24T20:10:01.987Z,9.06
2022-12-24T20:15:01.891Z,8.92
2022-12-24T20:20:02.261Z,8.92
2022-12-24T20:25:02.102Z,8.89
2022-12-24T20:30:02.205Z,8.85
2022-12-24T20:35:02.112Z,8.79
2022-12-24T20:40:02.129Z,8.76
2022-12-24T20:45:02.125Z,8.9
2022-12-24T20:50:01.865Z,8.81
2022-12-24T20:55:01.841Z,8.77
2022-12-24T21:00:01.802Z,8.73
2022-12-24T21:05:02.751Z,8.62
2022-12-24T21:10:01.942Z,8.65
2022-12-24T21:15:01.817Z,8.76
2022-12-24T21:20:01.878Z,8.53
2022-12-24T21:25:01.971Z,8.37
2022-12-24T21:30:02.074Z,8.34
2022-12-24T21:35:01.921Z,8.29
2022-12-24T21:40:01.688Z,8.37
2022-12-24T21:45:01.736Z,8.38
2022-12-24T21:50:02.131Z,8.37
2022-12-24T21:55:02.080Z,8.32
2022-12-24T22:00:02.129Z,8.37
2022-12-24T22:05:02.158Z,8.39
2022-12-24T22:10:02.170Z,8.39
2022-12-24T22:15:02.157Z,8.39
2022-12-24T22:20:02.208Z,8.29
2022-12-24T22:25:02.016Z,8.08
2022-12-24T22:30:01.383Z,8.07
2022-12-24T22:35:01.605Z,8
2022-12-24T22:40:01.470Z,8.08
2022-12-24T22:45:01.611Z,7.94
2022-12-24T22:50:02.137Z,8.15
2022-12-24T22:55:01.986Z,8.12
2022-12-24T23:00:01.718Z,8.24
2022-12-24T23:05:01.800Z,8.33
2022-12-24T23:10:02.178Z,8.49
2022-12-24T23:15:01.934Z,8.82
2022-12-24T23:20:01.425Z,8.82
2022-12-24T23:25:01.601Z,8.79
2022-12-24T23:30:01.691Z,8.82
2022-12-24T23:35:01.826Z,8.93
2022-12-24T23:40:01.848Z,8.95
2022-12-24T23:45:01.652Z,9.11
2022-12-24T23:50:01.800Z,9.25
2022-12-24T23:55:01.678Z,9.16
